Etusivu
METAR-TAF:

METAR-TAF

Lentoasemat :

Calhoun, Georgia, Yhdysvallat

Leveyspiiri: 34-27-20N, Pituuspiiri: 084-56-21W, korkeus merenpinnasta: 198 m

Tämänhetkinen sää

Tämä raportti tehtiin 20 minuuttia sitten, kello 14.35 UTC
Tuuli 5 kn pohjoisesta/koillisesta
Lämpötila 7°C
Kosteus 100%
Ilmanpaine 1023 hPa
Näkyvyys: 3.2 km
kovaa sadetta

METAR: KCZL 261435Z AUTO 03005KT 2SM +RA 07/07 A3021 RMK AO2 SKY OBSCURED

Aika: 09:55 (14:55 UTC)


TAF: puuttuu

Säähavainnot ja -ennusteet yli 4000 lentoasemalta (METAR- ja TAF-raportit).

Käytössä olevat sääasemat on merkitty karttaan keltaisilla ja punaisilla pisteillä.

Aseta hiiri pisteen päälle nähdäksesi sääaseman nimen.

Klikkaa sitten nähdäksesi säähavainnot ja -ennusteet.

Kartan vaihtaminen: klikkaa mustalla rastilla varustettuja vihreitä pisteitä, niin voit zoomata sisään; viivalla varustettua vihreää pistettä, niin voit zoomata ulos tai vihreitä nuolia, niin pääset viereisille kartoille.


METAR-TAF: